Time;durP1;ratioP1;P1;durP2;ratioP2;P2;SDS_P1;SDS_P2;PMS_P1;PMS_P2;Temp;Humidity;BMP_temperature;BMP_pressure;BME280_temperature;BME280_humidity;BME280_pressure;Samples;Min_cycle;Max_cycle;Signal;HPM_P1;HPM_P2
2023/07/07 00:02:18;;;;;;;0.10;0.10;;;;;;;;;;5050645;28;20049;-80
2023/07/07 00:04:44;;;;;;;0.85;0.85;;;;;;;;;;5026067;28;20058;-81
2023/07/07 00:07:11;;;;;;;1.15;0.60;;;;;;;;;;5021431;28;20207;-80
2023/07/07 00:09:37;;;;;;;0.10;0.10;;;;;;;;;;5012289;28;20102;-81
2023/07/07 00:12:04;;;;;;;0.10;0.10;;;;;;;;;;5017523;28;20062;-79
2023/07/07 00:14:30;;;;;;;0.10;0.10;;;;;;;;;;5032660;28;20053;-79
2023/07/07 00:17:01;;;;;;;0.20;0.20;;;;;;;;;;5030851;28;20527;-80
2023/07/07 00:19:28;;;;;;;;;;;;;;;;;;5028776;28;20141;-81
2023/07/07 00:21:58;;;;;;;0.00;0.00;;;;;;;;;;5029211;28;46056;-80
2023/07/07 00:24:25;;;;;;;0.10;0.10;;;;;;;;;;5036706;28;20064;-81
2023/07/07 00:26:51;;;;;;;0.10;0.10;;;;;;;;;;5030756;28;20050;-80
2023/07/07 00:29:18;;;;;;;0.10;0.10;;;;;;;;;;5049541;28;20107;-80
2023/07/07 00:31:44;;;;;;;0.10;0.10;;;;;;;;;;5033783;28;20086;-80
2023/07/07 00:34:17;;;;;;;0.10;0.10;;;;;;;;;;5036588;28;20057;-80
2023/07/07 00:36:43;;;;;;;0.10;0.10;;;;;;;;;;5026708;28;20100;-81
2023/07/07 00:39:10;;;;;;;0.10;0.10;;;;;;;;;;5036407;28;20747;-81
2023/07/07 00:41:37;;;;;;;0.10;0.10;;;;;;;;;;5014609;28;20057;-79
2023/07/07 00:44:05;;;;;;;0.20;0.20;;;;;;;;;;5012617;28;20141;-79
2023/07/07 00:46:32;;;;;;;0.10;0.10;;;;;;;;;;5019974;28;20058;-80
2023/07/07 00:49:00;;;;;;;0.10;0.10;;;;;;;;;;5033016;28;20073;-80
2023/07/07 00:51:37;;;;;;;0.10;0.10;;;;;;;;;;5022308;28;20058;-81
2023/07/07 00:54:05;;;;;;;0.10;0.10;;;;;;;;;;5032772;28;20061;-81
2023/07/07 00:56:35;;;;;;;0.10;0.10;;;;;;;;;;5043238;28;20143;-80
2023/07/07 00:59:05;;;;;;;0.10;0.10;;;;;;;;;;5051414;28;20818;-81
2023/07/07 01:01:31;;;;;;;0.10;0.10;;;;;;;;;;5035038;28;20080;-80
2023/07/07 01:04:00;;;;;;;0.10;0.10;;;;;;;;;;5053154;28;20177;-81
2023/07/07 01:06:37;;;;;;;0.15;0.15;;;;;;;;;;5029278;28;20053;-80
2023/07/07 01:09:06;;;;;;;0.10;0.10;;;;;;;;;;5039829;28;20057;-79
2023/07/07 01:11:33;;;;;;;0.13;0.13;;;;;;;;;;5038773;28;20058;-80
2023/07/07 01:14:01;;;;;;;0.10;0.10;;;;;;;;;;5048230;28;20058;-80
2023/07/07 01:16:32;;;;;;;0.10;0.10;;;;;;;;;;5028416;28;20058;-81
2023/07/07 01:19:15;;;;;;;0.10;0.10;;;;;;;;;;5016809;28;20054;-81
2023/07/07 01:22:15;;;;;;;0.10;0.10;;;;;;;;;;5032767;28;20546;-80
2023/07/07 01:25:00;;;;;;;0.10;0.10;;;;;;;;;;4989232;28;20576;-80
2023/07/07 01:27:32;;;;;;;0.30;0.30;;;;;;;;;;5043674;28;20064;-80
2023/07/07 01:30:17;;;;;;;0.10;0.10;;;;;;;;;;5024893;28;20049;-80
2023/07/07 01:32:43;;;;;;;0.10;0.10;;;;;;;;;;5014746;28;20511;-80
2023/07/07 01:35:12;;;;;;;0.73;0.73;;;;;;;;;;5031460;28;20097;-80
2023/07/07 01:37:38;;;;;;;0.10;0.10;;;;;;;;;;5037470;28;20592;-80
2023/07/07 01:40:06;;;;;;;0.10;0.10;;;;;;;;;;5024827;28;20067;-79
2023/07/07 01:42:53;;;;;;;0.10;0.10;;;;;;;;;;5033965;28;20170;-79
2023/07/07 01:45:26;;;;;;;0.10;0.10;;;;;;;;;;5023297;28;20109;-80
2023/07/07 01:47:59;;;;;;;0.10;0.10;;;;;;;;;;5031465;28;20053;-81
2023/07/07 01:50:27;;;;;;;0.10;0.10;;;;;;;;;;5032860;28;20089;-81
2023/07/07 01:52:56;;;;;;;0.20;0.20;;;;;;;;;;5015461;28;20116;-80
2023/07/07 01:55:30;;;;;;;0.10;0.10;;;;;;;;;;5038058;28;20065;-80
2023/07/07 01:57:58;;;;;;;0.10;0.10;;;;;;;;;;5016379;28;20054;-80
2023/07/07 02:00:25;;;;;;;0.10;0.10;;;;;;;;;;5032732;28;20144;-79
2023/07/07 02:02:52;;;;;;;0.10;0.10;;;;;;;;;;5040888;28;20085;-80
2023/07/07 02:05:19;;;;;;;0.10;0.10;;;;;;;;;;5041287;28;20100;-79
2023/07/07 02:07:45;;;;;;;0.10;0.10;;;;;;;;;;5036317;28;20053;-79
2023/07/07 02:10:12;;;;;;;0.10;0.10;;;;;;;;;;5031867;28;20085;-80
2023/07/07 02:12:38;;;;;;;0.20;0.20;;;;;;;;;;5034790;28;20053;-80
2023/07/07 02:15:05;;;;;;;0.10;0.10;;;;;;;;;;5031924;28;20120;-79
2023/07/07 02:17:31;;;;;;;0.10;0.10;;;;;;;;;;5025624;28;20108;-80
2023/07/07 02:19:58;;;;;;;0.10;0.10;;;;;;;;;;5015714;28;20821;-79
2023/07/07 02:22:25;;;;;;;0.10;0.10;;;;;;;;;;5028604;28;20054;-79
2023/07/07 02:24:52;;;;;;;0.10;0.10;;;;;;;;;;5031088;28;20542;-78
2023/07/07 02:27:19;;;;;;;0.10;0.10;;;;;;;;;;5035101;28;20088;-79
2023/07/07 02:29:45;;;;;;;0.10;0.10;;;;;;;;;;5028384;28;20038;-80
2023/07/07 02:32:12;;;;;;;0.10;0.10;;;;;;;;;;5032999;28;20064;-79
2023/07/07 02:34:39;;;;;;;0.10;0.10;;;;;;;;;;5017530;28;20128;-80
2023/07/07 02:37:12;;;;;;;0.10;0.10;;;;;;;;;;5030972;28;20579;-80
2023/07/07 02:39:40;;;;;;;0.10;0.10;;;;;;;;;;5032904;28;20061;-81
2023/07/07 02:42:06;;;;;;;0.63;0.63;;;;;;;;;;5024089;28;20058;-79
2023/07/07 02:44:33;;;;;;;0.10;0.10;;;;;;;;;;5017271;28;20657;-80
2023/07/07 02:46:59;;;;;;;0.20;0.20;;;;;;;;;;5036602;28;20061;-80
2023/07/07 02:49:26;;;;;;;0.10;0.10;;;;;;;;;;5050823;28;20526;-79
2023/07/07 02:51:53;;;;;;;0.10;0.10;;;;;;;;;;5020683;28;20101;-79
2023/07/07 02:54:19;;;;;;;0.40;0.40;;;;;;;;;;5017411;28;20745;-79
2023/07/07 02:56:45;;;;;;;0.10;0.10;;;;;;;;;;5032665;28;20049;-79
2023/07/07 02:59:12;;;;;;;0.10;0.10;;;;;;;;;;5030337;28;20136;-79
2023/07/07 03:01:39;;;;;;;0.10;0.10;;;;;;;;;;5013508;28;20062;-79
2023/07/07 03:04:06;;;;;;;0.10;0.10;;;;;;;;;;5012787;28;20056;-80
2023/07/07 03:06:32;;;;;;;0.20;0.20;;;;;;;;;;5018774;28;20126;-79
2023/07/07 03:08:58;;;;;;;0.00;0.00;;;;;;;;;;5032466;28;20054;-79
2023/07/07 03:11:25;;;;;;;0.10;0.10;;;;;;;;;;5016172;28;20061;-79
2023/07/07 03:13:51;;;;;;;0.10;0.10;;;;;;;;;;5045149;28;20054;-79
2023/07/07 03:16:23;;;;;;;0.20;0.20;;;;;;;;;;5048105;28;20057;-79
2023/07/07 03:18:52;;;;;;;0.10;0.10;;;;;;;;;;5012785;28;20643;-80
2023/07/07 03:21:19;;;;;;;0.10;0.10;;;;;;;;;;5012312;28;20038;-79
2023/07/07 03:23:46;;;;;;;0.10;0.10;;;;;;;;;;5048557;28;20144;-79
2023/07/07 03:26:13;;;;;;;0.20;0.20;;;;;;;;;;5039637;28;20057;-79
2023/07/07 03:28:40;;;;;;;0.10;0.10;;;;;;;;;;5035940;28;20050;-80
2023/07/07 03:31:10;;;;;;;0.10;0.10;;;;;;;;;;5030165;28;20133;-79
2023/07/07 03:33:41;;;;;;;0.20;0.20;;;;;;;;;;5044407;28;20061;-80
2023/07/07 03:36:11;;;;;;;0.10;0.10;;;;;;;;;;5027406;28;22044;-79
2023/07/07 03:38:38;;;;;;;0.30;0.30;;;;;;;;;;5032904;28;20129;-80
2023/07/07 03:41:05;;;;;;;0.10;0.10;;;;;;;;;;5030800;28;20066;-80
2023/07/07 03:43:33;;;;;;;0.17;0.17;;;;;;;;;;5019458;28;20726;-79
2023/07/07 03:46:00;;;;;;;0.10;0.10;;;;;;;;;;5017969;28;20054;-79
2023/07/07 03:48:27;;;;;;;0.10;0.10;;;;;;;;;;5015708;28;20363;-80
2023/07/07 03:57:45;;;;;;;0.10;0.10;;;;;;;;;;4996836;28;20398;-77
2023/07/07 04:00:11;;;;;;;0.00;0.00;;;;;;;;;;5014864;28;20068;-79
2023/07/07 04:02:38;;;;;;;0.10;0.10;;;;;;;;;;5024332;28;20564;-78
2023/07/07 04:05:04;;;;;;;0.10;0.10;;;;;;;;;;5027287;28;20056;-79
2023/07/07 04:07:31;;;;;;;0.10;0.10;;;;;;;;;;5026389;28;20057;-79
2023/07/07 04:09:57;;;;;;;0.15;0.15;;;;;;;;;;5032348;28;20112;-80
2023/07/07 04:15:55;;;;;;;0.10;0.10;;;;;;;;;;5018395;28;20074;-79
2023/07/07 04:18:22;;;;;;;0.10;0.10;;;;;;;;;;5040769;28;20062;-81
2023/07/07 04:20:49;;;;;;;0.35;0.35;;;;;;;;;;5035902;28;20107;-79
2023/07/07 04:23:15;;;;;;;0.03;0.03;;;;;;;;;;5025264;28;20128;-80
2023/07/07 04:25:44;;;;;;;0.10;0.10;;;;;;;;;;5049521;28;20084;-80
2023/07/07 04:28:10;;;;;;;1.40;1.38;;;;;;;;;;5013794;28;20058;-80
2023/07/07 04:30:37;;;;;;;0.10;0.10;;;;;;;;;;5014712;28;20597;-79
2023/07/07 04:33:03;;;;;;;0.10;0.10;;;;;;;;;;5027845;28;20057;-80
2023/07/07 04:35:34;;;;;;;0.10;0.10;;;;;;;;;;5012504;28;20049;-79
2023/07/07 04:38:00;;;;;;;0.10;0.10;;;;;;;;;;5021991;28;20443;-80
2023/07/07 04:40:29;;;;;;;0.10;0.10;;;;;;;;;;5015455;28;20113;-79
2023/07/07 04:42:55;;;;;;;0.13;0.13;;;;;;;;;;5012777;28;20066;-79
2023/07/07 04:45:22;;;;;;;0.10;0.10;;;;;;;;;;5025086;28;20517;-80
2023/07/07 04:47:48;;;;;;;0.10;0.10;;;;;;;;;;5025807;28;20058;-80
2023/07/07 04:50:15;;;;;;;0.10;0.10;;;;;;;;;;5019680;28;20938;-80
2023/07/07 04:52:41;;;;;;;0.10;0.10;;;;;;;;;;5031984;28;20112;-80
2023/07/07 04:58:37;;;;;;;0.10;0.10;;;;;;;;;;5020060;28;20038;-79
2023/07/07 05:01:12;;;;;;;0.10;0.10;;;;;;;;;;5034792;28;20536;-80
2023/07/07 05:03:40;;;;;;;0.10;0.10;;;;;;;;;;5040354;28;20054;-80
2023/07/07 05:06:06;;;;;;;0.10;0.10;;;;;;;;;;5049234;28;20041;-80
2023/07/07 05:08:34;;;;;;;0.20;0.20;;;;;;;;;;5034417;28;20529;-80
2023/07/07 05:11:01;;;;;;;0.40;0.40;;;;;;;;;;5041310;28;20049;-79
2023/07/07 05:13:27;;;;;;;0.15;0.13;;;;;;;;;;5034610;28;20149;-79
2023/07/07 05:16:01;;;;;;;0.30;0.30;;;;;;;;;;5040821;28;20999;-80
2023/07/07 05:18:27;;;;;;;0.20;0.20;;;;;;;;;;5047074;28;20144;-79
2023/07/07 05:20:54;;;;;;;0.10;0.10;;;;;;;;;;5028873;28;20111;-80
2023/07/07 05:23:21;;;;;;;0.10;0.10;;;;;;;;;;5049859;28;20053;-80
2023/07/07 05:25:48;;;;;;;0.10;0.10;;;;;;;;;;5047931;28;20078;-80
2023/07/07 05:28:14;;;;;;;0.10;0.10;;;;;;;;;;5039122;28;20073;-80
2023/07/07 05:30:41;;;;;;;0.10;0.10;;;;;;;;;;5036049;28;20054;-80
2023/07/07 05:33:08;;;;;;;0.10;0.10;;;;;;;;;;5049827;28;20119;-80
2023/07/07 05:35:34;;;;;;;0.25;0.25;;;;;;;;;;5031507;28;20128;-80
2023/07/07 05:38:02;;;;;;;0.10;0.10;;;;;;;;;;5041971;28;20046;-80
2023/07/07 05:40:31;;;;;;;0.10;0.10;;;;;;;;;;5030347;28;20054;-80
2023/07/07 05:43:02;;;;;;;0.45;0.32;;;;;;;;;;5037329;28;20076;-79
2023/07/07 05:45:28;;;;;;;0.52;0.35;;;;;;;;;;5023091;28;20133;-80
2023/07/07 05:47:55;;;;;;;0.10;0.10;;;;;;;;;;5032659;28;20080;-80
2023/07/07 05:50:21;;;;;;;0.20;0.20;;;;;;;;;;5019427;28;20108;-79
2023/07/07 05:52:49;;;;;;;0.32;0.28;;;;;;;;;;5027876;28;20056;-79
2023/07/07 05:55:22;;;;;;;1.08;0.38;;;;;;;;;;5018834;28;20116;-79
2023/07/07 05:57:49;;;;;;;0.57;0.43;;;;;;;;;;5026190;28;20545;-79
2023/07/07 06:00:16;;;;;;;0.10;0.10;;;;;;;;;;5038457;28;20065;-79
2023/07/07 06:02:42;;;;;;;0.88;0.70;;;;;;;;;;5042948;28;20538;-79
2023/07/07 06:05:09;;;;;;;0.10;0.10;;;;;;;;;;5036335;28;20060;-79
2023/07/07 06:07:35;;;;;;;0.10;0.10;;;;;;;;;;5028589;28;20050;-79
2023/07/07 06:10:02;;;;;;;0.57;0.40;;;;;;;;;;5033539;28;20054;-78
2023/07/07 06:12:29;;;;;;;0.10;0.10;;;;;;;;;;5029213;28;20041;-79
2023/07/07 06:14:56;;;;;;;0.90;0.45;;;;;;;;;;5051505;28;20109;-79
2023/07/07 06:17:22;;;;;;;0.40;0.40;;;;;;;;;;5049088;28;20037;-79
2023/07/07 06:19:49;;;;;;;0.63;0.47;;;;;;;;;;5038963;28;20044;-79
2023/07/07 06:22:15;;;;;;;0.35;0.35;;;;;;;;;;5034014;28;20053;-79
2023/07/07 06:24:41;;;;;;;0.28;0.22;;;;;;;;;;5037594;28;20578;-79
2023/07/07 06:27:08;;;;;;;0.20;0.20;;;;;;;;;;5039921;28;20101;-79
2023/07/07 06:29:35;;;;;;;1.27;0.52;;;;;;;;;;5037708;28;20064;-80
2023/07/07 06:32:02;;;;;;;0.45;0.30;;;;;;;;;;5047608;28;20045;-80
2023/07/07 06:34:28;;;;;;;0.25;0.25;;;;;;;;;;5024223;28;20056;-80
2023/07/07 06:36:54;;;;;;;0.20;0.20;;;;;;;;;;5028792;28;20061;-79
2023/07/07 06:39:21;;;;;;;0.32;0.30;;;;;;;;;;5028401;28;20053;-81
2023/07/07 06:41:47;;;;;;;0.50;0.30;;;;;;;;;;5029481;28;20068;-80
2023/07/07 06:44:14;;;;;;;0.20;0.20;;;;;;;;;;5035093;28;20933;-80
2023/07/07 06:46:40;;;;;;;0.65;0.40;;;;;;;;;;5038801;28;20050;-81
2023/07/07 06:49:07;;;;;;;0.20;0.20;;;;;;;;;;5024289;28;20931;-80
2023/07/07 06:51:34;;;;;;;1.67;0.43;;;;;;;;;;5047354;28;20941;-81
2023/07/07 06:54:00;;;;;;;0.15;0.15;;;;;;;;;;5034724;28;20057;-81
2023/07/07 06:56:27;;;;;;;0.68;0.40;;;;;;;;;;5034032;28;20144;-81
2023/07/07 06:58:53;;;;;;;0.20;0.20;;;;;;;;;;5044481;28;20047;-80
2023/07/07 07:01:20;;;;;;;0.22;0.22;;;;;;;;;;5034872;28;20085;-80
2023/07/07 07:03:46;;;;;;;0.10;0.10;;;;;;;;;;5045196;28;20100;-81
2023/07/07 07:06:13;;;;;;;0.30;0.30;;;;;;;;;;5026945;28;20105;-82
2023/07/07 07:08:39;;;;;;;0.20;0.20;;;;;;;;;;5024354;28;20105;-82
2023/07/07 07:11:06;;;;;;;0.30;0.30;;;;;;;;;;5025644;28;20153;-81
2023/07/07 07:17:01;;;;;;;0.20;0.20;;;;;;;;;;5012959;28;20127;-81
2023/07/07 07:19:27;;;;;;;0.25;0.25;;;;;;;;;;5044971;28;20108;-81
2023/07/07 07:21:54;;;;;;;1.65;0.85;;;;;;;;;;5032599;28;20097;-81
2023/07/07 07:24:22;;;;;;;0.20;0.20;;;;;;;;;;5031960;28;20271;-80
2023/07/07 07:26:48;;;;;;;1.10;0.40;;;;;;;;;;5040293;28;20061;-80
2023/07/07 07:29:15;;;;;;;0.20;0.20;;;;;;;;;;5018018;28;20076;-80
2023/07/07 07:31:43;;;;;;;0.22;0.22;;;;;;;;;;5020881;28;20058;-80
2023/07/07 07:34:22;;;;;;;0.50;0.50;;;;;;;;;;5019811;28;20061;-80
2023/07/07 07:36:49;;;;;;;0.30;0.30;;;;;;;;;;5017898;28;20258;-80
2023/07/07 07:39:15;;;;;;;2.28;0.68;;;;;;;;;;5032259;28;20829;-81
2023/07/07 07:41:44;;;;;;;0.22;0.22;;;;;;;;;;5024293;28;20064;-81
2023/07/07 07:44:10;;;;;;;0.20;0.20;;;;;;;;;;5020923;28;20568;-81
2023/07/07 07:46:37;;;;;;;0.20;0.20;;;;;;;;;;5040402;28;20105;-80
2023/07/07 07:49:03;;;;;;;0.30;0.30;;;;;;;;;;5030298;28;20093;-81
2023/07/07 08:12:33;;;;;;;0.20;0.20;;;;;;;;;;5030987;28;20145;-79
2023/07/07 08:14:59;;;;;;;0.15;0.15;;;;;;;;;;5011196;28;20820;-81
2023/07/07 08:17:26;;;;;;;0.45;0.38;;;;;;;;;;5044000;28;20054;-81
2023/07/07 08:19:54;;;;;;;0.75;0.50;;;;;;;;;;5015001;28;20144;-81
2023/07/07 08:22:22;;;;;;;0.22;0.22;;;;;;;;;;5024565;28;20049;-81
2023/07/07 08:24:53;;;;;;;0.13;0.13;;;;;;;;;;5035398;28;20054;-79
2023/07/07 08:27:23;;;;;;;0.80;0.60;;;;;;;;;;5032856;28;20148;-79
2023/07/07 08:29:53;;;;;;;0.45;0.35;;;;;;;;;;5046451;28;20058;-79
2023/07/07 08:32:23;;;;;;;0.30;0.30;;;;;;;;;;5040284;28;20058;-80
2023/07/07 08:34:50;;;;;;;0.65;0.40;;;;;;;;;;5041862;28;20049;-78
2023/07/07 08:37:21;;;;;;;0.73;0.30;;;;;;;;;;5029017;28;20812;-79
2023/07/07 08:39:47;;;;;;;0.20;0.20;;;;;;;;;;5031787;28;20069;-80
2023/07/07 08:42:25;;;;;;;0.20;0.20;;;;;;;;;;5030098;28;20065;-80
2023/07/07 08:44:52;;;;;;;0.20;0.20;;;;;;;;;;5045742;28;20100;-80
2023/07/07 08:47:36;;;;;;;0.50;0.50;;;;;;;;;;5017456;28;20108;-77
2023/07/07 08:50:16;;;;;;;0.30;0.30;;;;;;;;;;5027975;28;20085;-77
2023/07/07 08:53:03;;;;;;;0.40;0.40;;;;;;;;;;5044822;28;20560;-77
2023/07/07 08:55:29;;;;;;;0.30;0.30;;;;;;;;;;5049990;28;20068;-78
2023/07/07 08:58:02;;;;;;;0.20;0.20;;;;;;;;;;5032021;28;20140;-80
2023/07/07 09:00:45;;;;;;;0.20;0.20;;;;;;;;;;5032350;28;20053;-80
2023/07/07 09:03:33;;;;;;;0.20;0.20;;;;;;;;;;5029564;28;20049;-78
2023/07/07 09:06:03;;;;;;;0.20;0.20;;;;;;;;;;5012896;28;20061;-78
2023/07/07 09:08:41;;;;;;;0.20;0.20;;;;;;;;;;5029924;28;20184;-78
2023/07/07 09:11:27;;;;;;;0.20;0.20;;;;;;;;;;5031940;28;20061;-77
2023/07/07 09:13:56;;;;;;;0.35;0.35;;;;;;;;;;5032587;28;20069;-81
2023/07/07 09:16:28;;;;;;;0.28;0.28;;;;;;;;;;5013590;28;20045;-81
2023/07/07 09:19:00;;;;;;;0.25;0.25;;;;;;;;;;5027040;28;20061;-82
2023/07/07 09:21:44;;;;;;;0.40;0.40;;;;;;;;;;5043852;28;20057;-81
2023/07/07 09:24:16;;;;;;;5.28;1.10;;;;;;;;;;5033844;28;20081;-81
2023/07/07 09:26:46;;;;;;;0.20;0.20;;;;;;;;;;5035593;28;20057;-80
2023/07/07 09:29:21;;;;;;;0.75;0.40;;;;;;;;;;5042855;28;20081;-80
2023/07/07 09:31:47;;;;;;;0.28;0.25;;;;;;;;;;5052181;28;20111;-81
2023/07/07 09:45:02;;;;;;;0.30;0.30;;;;;;;;;;5031467;28;20034;-81
2023/07/07 09:47:52;;;;;;;0.30;0.30;;;;;;;;;;5011967;28;20054;-82
2023/07/07 09:50:29;;;;;;;0.20;0.20;;;;;;;;;;5029648;28;20990;-80
2023/07/07 09:52:58;;;;;;;0.30;0.30;;;;;;;;;;5032592;28;20058;-80
2023/07/07 09:55:33;;;;;;;0.35;0.35;;;;;;;;;;5056184;28;20049;-80
2023/07/07 09:57:59;;;;;;;0.30;0.30;;;;;;;;;;5049622;28;20080;-80
2023/07/07 10:00:27;;;;;;;0.30;0.30;;;;;;;;;;5036999;28;20576;-80
2023/07/07 10:03:23;;;;;;;0.30;0.30;;;;;;;;;;5022774;28;20262;-80
2023/07/07 10:05:50;;;;;;;0.43;0.40;;;;;;;;;;5042526;28;20107;-81
2023/07/07 10:08:17;;;;;;;0.32;0.32;;;;;;;;;;5032701;28;20100;-79
2023/07/07 10:10:56;;;;;;;0.40;0.38;;;;;;;;;;5032190;28;20070;-81
2023/07/07 10:13:37;;;;;;;0.30;0.30;;;;;;;;;;5014677;28;20042;-80
2023/07/07 10:16:06;;;;;;;0.50;0.50;;;;;;;;;;5044326;28;20049;-81
2023/07/07 10:18:33;;;;;;;0.30;0.30;;;;;;;;;;5030540;28;20061;-80
2023/07/07 10:21:15;;;;;;;0.30;0.30;;;;;;;;;;5047314;28;20060;-81
2023/07/07 10:23:41;;;;;;;0.30;0.30;;;;;;;;;;5039631;28;20062;-80
2023/07/07 10:26:08;;;;;;;0.40;0.40;;;;;;;;;;5038574;28;20077;-80
2023/07/07 10:28:34;;;;;;;0.75;0.75;;;;;;;;;;5034783;28;20053;-77
2023/07/07 10:52:22;;;;;;;0.63;0.40;;;;;;;;;;5040355;28;20064;-78
2023/07/07 10:55:18;;;;;;;0.30;0.30;;;;;;;;;;5016411;28;20422;-79
2023/07/07 10:57:46;;;;;;;0.43;0.43;;;;;;;;;;5031839;28;20078;-78
2023/07/07 11:00:22;;;;;;;0.32;0.32;;;;;;;;;;5013447;28;20081;-80
2023/07/07 11:03:14;;;;;;;0.30;0.30;;;;;;;;;;5011541;28;20135;-81
2023/07/07 11:05:51;;;;;;;0.40;0.40;;;;;;;;;;5029981;28;20421;-84
2023/07/07 11:08:32;;;;;;;0.35;0.35;;;;;;;;;;5031892;28;20054;-81
2023/07/07 11:11:17;;;;;;;0.50;0.50;;;;;;;;;;5023162;28;20180;-82
2023/07/07 11:13:53;;;;;;;0.40;0.40;;;;;;;;;;5025352;28;20552;-81
2023/07/07 11:16:32;;;;;;;0.40;0.40;;;;;;;;;;5018103;28;20061;-84
2023/07/07 11:19:23;;;;;;;0.40;0.40;;;;;;;;;;5031057;28;20110;-82
2023/07/07 11:22:08;;;;;;;1.00;0.70;;;;;;;;;;5033955;28;20057;-82
2023/07/07 11:24:43;;;;;;;0.60;0.60;;;;;;;;;;5015508;28;20162;-83
2023/07/07 11:27:31;;;;;;;0.55;0.50;;;;;;;;;;5012638;28;20115;-84
2023/07/07 11:29:57;;;;;;;0.57;0.50;;;;;;;;;;5015552;28;20038;-82
2023/07/07 11:32:30;;;;;;;0.47;0.47;;;;;;;;;;5020134;28;20058;-83
2023/07/07 11:35:06;;;;;;;0.80;0.45;;;;;;;;;;5011820;28;20223;-81
2023/07/07 11:37:45;;;;;;;0.43;0.43;;;;;;;;;;5030177;28;20053;-82
2023/07/07 11:40:30;;;;;;;0.65;0.65;;;;;;;;;;5048984;28;20064;-81
2023/07/07 11:43:19;;;;;;;1.02;0.45;;;;;;;;;;5030595;28;20054;-82
2023/07/07 11:46:04;;;;;;;0.50;0.50;;;;;;;;;;5019101;28;20064;-82
2023/07/07 11:48:53;;;;;;;0.30;0.30;;;;;;;;;;5023793;28;20061;-82
2023/07/07 11:51:28;;;;;;;0.52;0.52;;;;;;;;;;5048868;28;20092;-82
2023/07/07 11:54:05;;;;;;;0.47;0.47;;;;;;;;;;5028529;28;20058;-82
2023/07/07 11:56:32;;;;;;;0.40;0.40;;;;;;;;;;5011550;28;20058;-82
2023/07/07 11:59:05;;;;;;;0.50;0.50;;;;;;;;;;5036427;28;20775;-82
2023/07/07 12:01:36;;;;;;;0.40;0.40;;;;;;;;;;5048500;28;20061;-81
2023/07/07 12:04:11;;;;;;;0.88;0.82;;;;;;;;;;5046538;28;20959;-82
2023/07/07 12:06:45;;;;;;;0.40;0.40;;;;;;;;;;5021125;28;20073;-81
2023/07/07 12:09:15;;;;;;;0.75;0.60;;;;;;;;;;5018274;28;20852;-81
2023/07/07 12:11:50;;;;;;;0.30;0.30;;;;;;;;;;5048388;28;20065;-82
2023/07/07 12:14:30;;;;;;;0.40;0.40;;;;;;;;;;5039178;28;20054;-82
2023/07/07 12:16:59;;;;;;;0.35;0.35;;;;;;;;;;5058723;28;20584;-83
2023/07/07 12:19:26;;;;;;;;;;;;;;;;;;5038225;28;20053;-82
2023/07/07 12:21:54;;;;;;;0.43;0.43;;;;;;;;;;5027745;28;44889;-81
2023/07/07 12:24:42;;;;;;;0.30;0.30;;;;;;;;;;5032202;28;20141;-81
2023/07/07 12:27:13;;;;;;;0.30;0.30;;;;;;;;;;5036086;28;20056;-82
2023/07/07 12:29:44;;;;;;;1.33;0.60;;;;;;;;;;5014140;28;20068;-80
2023/07/07 12:32:10;;;;;;;1.05;0.60;;;;;;;;;;5017973;28;20046;-82
2023/07/07 12:34:44;;;;;;;0.65;0.50;;;;;;;;;;5027864;28;20049;-81
2023/07/07 12:37:21;;;;;;;0.50;0.50;;;;;;;;;;5023182;28;20136;-82
2023/07/07 12:39:51;;;;;;;0.40;0.40;;;;;;;;;;5032780;28;20053;-83
2023/07/07 12:42:18;;;;;;;4.07;0.77;;;;;;;;;;5050317;28;20733;-82
2023/07/07 12:44:45;;;;;;;0.40;0.40;;;;;;;;;;5031011;28;20057;-83
2023/07/07 12:47:35;;;;;;;0.90;0.55;;;;;;;;;;5014593;28;20969;-84
2023/07/07 12:50:15;;;;;;;0.77;0.60;;;;;;;;;;5020075;28;20619;-82
2023/07/07 12:52:49;;;;;;;0.30;0.30;;;;;;;;;;5042711;28;20068;-82
2023/07/07 12:55:30;;;;;;;0.40;0.40;;;;;;;;;;5019882;28;20563;-81
2023/07/07 12:57:59;;;;;;;0.60;0.50;;;;;;;;;;5020543;28;20054;-82
2023/07/07 13:00:28;;;;;;;1.93;1.37;;;;;;;;;;5039539;28;20061;-82
2023/07/07 13:03:07;;;;;;;0.40;0.40;;;;;;;;;;5039317;28;20153;-83
2023/07/07 13:05:42;;;;;;;0.40;0.40;;;;;;;;;;5030975;28;20050;-82
2023/07/07 13:08:08;;;;;;;0.93;0.52;;;;;;;;;;5038654;28;20053;-84
2023/07/07 13:10:41;;;;;;;1.00;0.60;;;;;;;;;;5020524;28;20533;-87
2023/07/07 13:13:18;;;;;;;0.30;0.30;;;;;;;;;;5032590;28;20038;-83
2023/07/07 13:15:52;;;;;;;0.93;0.50;;;;;;;;;;5026272;28;20631;-84
2023/07/07 13:18:22;;;;;;;0.52;0.50;;;;;;;;;;5037329;28;20061;-84
2023/07/07 13:20:50;;;;;;;0.40;0.40;;;;;;;;;;5033067;28;20310;-84
2023/07/07 13:23:23;;;;;;;0.30;0.30;;;;;;;;;;5024949;28;20096;-83
2023/07/07 13:25:49;;;;;;;0.40;0.40;;;;;;;;;;5020584;28;20033;-86
2023/07/07 13:28:16;;;;;;;5.32;0.50;;;;;;;;;;5044005;28;20514;-87
2023/07/07 13:30:45;;;;;;;;;;;;;;;;;;5013392;28;20536;-83
2023/07/07 13:33:20;;;;;;;0.45;0.40;;;;;;;;;;5015733;28;46653;-85
2023/07/07 13:35:48;;;;;;;0.70;0.70;;;;;;;;;;5049509;28;20046;-84
2023/07/07 13:38:17;;;;;;;0.30;0.30;;;;;;;;;;5036277;28;20065;-86
2023/07/07 13:40:44;;;;;;;0.50;0.50;;;;;;;;;;5021056;28;20130;-81
2023/07/07 13:43:33;;;;;;;0.40;0.40;;;;;;;;;;5037487;28;20404;-83
2023/07/07 13:46:09;;;;;;;3.67;1.20;;;;;;;;;;5014410;28;20053;-85
2023/07/07 13:48:41;;;;;;;0.30;0.30;;;;;;;;;;5039989;28;20057;-83
2023/07/07 13:51:13;;;;;;;0.30;0.30;;;;;;;;;;5021895;28;20060;-84
2023/07/07 13:53:40;;;;;;;0.63;0.63;;;;;;;;;;5039803;28;20053;-85
2023/07/07 13:56:06;;;;;;;0.30;0.30;;;;;;;;;;5024053;28;20137;-85
2023/07/07 13:58:39;;;;;;;0.30;0.30;;;;;;;;;;5028801;28;20838;-85
2023/07/07 14:01:13;;;;;;;2.53;0.57;;;;;;;;;;5030216;28;20305;-85
2023/07/07 14:03:44;;;;;;;0.40;0.40;;;;;;;;;;5044660;28;20630;-85
2023/07/07 14:06:12;;;;;;;0.93;0.60;;;;;;;;;;5036002;28;20054;-83
2023/07/07 14:08:38;;;;;;;1.25;0.43;;;;;;;;;;5010474;28;20089;-83
2023/07/07 14:11:06;;;;;;;0.30;0.30;;;;;;;;;;5029372;28;20062;-84
2023/07/07 14:13:33;;;;;;;0.40;0.40;;;;;;;;;;5027487;28;20060;-83
2023/07/07 14:16:03;;;;;;;0.85;0.50;;;;;;;;;;5012091;28;20058;-87
2023/07/07 14:18:38;;;;;;;0.77;0.77;;;;;;;;;;5010902;28;20265;-88
2023/07/07 14:21:06;;;;;;;0.50;0.40;;;;;;;;;;5023812;28;21353;-85
2023/07/07 14:30:26;;;;;;;0.40;0.40;;;;;;;;;;5021645;28;20038;-82
2023/07/07 14:32:56;;;;;;;0.35;0.35;;;;;;;;;;5019269;28;20053;-83
2023/07/07 14:35:27;;;;;;;0.75;0.60;;;;;;;;;;5036222;28;20037;-82
2023/07/07 14:37:55;;;;;;;0.30;0.30;;;;;;;;;;5025633;28;20065;-81
2023/07/07 14:40:31;;;;;;;0.52;0.50;;;;;;;;;;5023982;28;20057;-81
2023/07/07 14:42:59;;;;;;;1.08;0.55;;;;;;;;;;5033761;28;20050;-80
2023/07/07 14:45:27;;;;;;;0.65;0.50;;;;;;;;;;5053543;28;20148;-82
2023/07/07 14:47:54;;;;;;;0.43;0.40;;;;;;;;;;5040470;28;20065;-83
2023/07/07 14:50:21;;;;;;;0.30;0.30;;;;;;;;;;5046272;28;20058;-83
2023/07/07 14:52:49;;;;;;;0.40;0.40;;;;;;;;;;5018927;28;20116;-81
2023/07/07 14:55:23;;;;;;;0.30;0.30;;;;;;;;;;5051253;28;20597;-83
2023/07/07 14:57:53;;;;;;;0.40;0.40;;;;;;;;;;5061392;28;20037;-82
2023/07/07 15:00:40;;;;;;;0.35;0.35;;;;;;;;;;5061372;28;20034;-82
2023/07/07 15:03:25;;;;;;;1.55;0.75;;;;;;;;;;5045627;28;20050;-83
2023/07/07 15:06:04;;;;;;;0.50;0.50;;;;;;;;;;5046391;28;20871;-82
2023/07/07 15:08:31;;;;;;;0.75;0.50;;;;;;;;;;5030079;28;20057;-82
2023/07/07 15:11:01;;;;;;;0.30;0.30;;;;;;;;;;5058536;28;20911;-84
2023/07/07 15:13:28;;;;;;;0.40;0.40;;;;;;;;;;5036964;28;20105;-83
2023/07/07 15:15:55;;;;;;;0.30;0.30;;;;;;;;;;5019877;28;20772;-83
2023/07/07 15:18:22;;;;;;;0.30;0.30;;;;;;;;;;5035938;28;20053;-84
2023/07/07 15:20:49;;;;;;;0.35;0.35;;;;;;;;;;5038519;28;20187;-83
2023/07/07 15:23:16;;;;;;;0.68;0.68;;;;;;;;;;5036602;28;20054;-82
2023/07/07 15:25:42;;;;;;;0.32;0.32;;;;;;;;;;5036331;28;20926;-82
2023/07/07 15:28:10;;;;;;;0.47;0.47;;;;;;;;;;5057810;28;20081;-84
2023/07/07 15:30:36;;;;;;;0.40;0.40;;;;;;;;;;5026831;28;20157;-83
2023/07/07 15:33:07;;;;;;;0.30;0.30;;;;;;;;;;5056635;28;20220;-83
2023/07/07 15:35:35;;;;;;;0.47;0.45;;;;;;;;;;5058883;28;20096;-83
2023/07/07 15:38:21;;;;;;;0.40;0.40;;;;;;;;;;5054319;28;20103;-82
2023/07/07 15:40:48;;;;;;;0.30;0.30;;;;;;;;;;5025892;28;20140;-82
2023/07/07 15:43:15;;;;;;;0.40;0.40;;;;;;;;;;5017054;28;20980;-83
2023/07/07 15:45:41;;;;;;;1.27;0.90;;;;;;;;;;5034883;28;20066;-82
2023/07/07 15:48:21;;;;;;;;;;;;;;;;;;5020438;28;20062;-82
2023/07/07 15:50:48;;;;;;;0.30;0.30;;;;;;;;;;5019365;28;43862;-82
2023/07/07 15:53:15;;;;;;;0.40;0.40;;;;;;;;;;5031155;28;20109;-81
2023/07/07 15:55:41;;;;;;;0.60;0.60;;;;;;;;;;5025414;28;20033;-83
2023/07/07 15:58:09;;;;;;;0.60;0.60;;;;;;;;;;5049413;28;20060;-83
2023/07/07 16:00:39;;;;;;;0.60;0.60;;;;;;;;;;5034385;28;20060;-83
2023/07/07 16:03:05;;;;;;;0.30;0.30;;;;;;;;;;5018113;28;20058;-83
2023/07/07 16:05:32;;;;;;;0.30;0.30;;;;;;;;;;5034075;28;20068;-83
2023/07/07 16:07:59;;;;;;;0.30;0.30;;;;;;;;;;5019324;28;20081;-83
2023/07/07 16:10:25;;;;;;;0.30;0.30;;;;;;;;;;5036354;28;20057;-83
2023/07/07 16:12:52;;;;;;;0.30;0.30;;;;;;;;;;5049876;28;20144;-84
2023/07/07 16:15:18;;;;;;;0.43;0.43;;;;;;;;;;5018397;28;20612;-84
2023/07/07 16:21:18;;;;;;;0.28;0.28;;;;;;;;;;5043393;28;20029;-80
2023/07/07 16:23:44;;;;;;;0.22;0.22;;;;;;;;;;5038310;28;20046;-80